ENBN/BNN METAR and TAF weather

Enter ICAO airport designator
Station Type Date Time Source
ENBN METAR 2022/01/29 12:50 UTC NOAA

ENBN 291250Z 06004KT 9999 FEW014 BKN020 03/01 Q0975


Station Type Date Time Source
ENBN Decoded METAR 2022/01/29 12:50 UTC NOAA

Bronnoysund / Bronnoy, Norway (ENBN) 65-28N 012-13E 9M
Jan 29, 2022 - 07:50 AM EST / 2022.01.29 1250 UTC
Wind: from the ENE (060 degrees) at 5 MPH (4 KT):0
Visibility: greater than 7 mile(s):0
Sky conditions: mostly cloudy
Temperature: 37 F (3 C)
Dew Point: 33 F (1 C)
Relative Humidity: 86%
Pressure (altimeter): 28.79 in. Hg (0975 hPa)
ob: ENBN 291250Z 06004KT 9999 FEW014 BKN020 03/01 Q0975
cycle: 13

Station Type Date Time Source
ENBN TAF 2011/03/27 18:12 UTC NOAA

TAF TAF ENBN 261700Z 2618/2718 CNL

Example: see airport list